sensor_id;sensor_type;location;lat;lon;timestamp;P1;durP1;ratioP1;P2;durP2;ratioP2
1693;SDS011;71975;47.068;15.408;2023-08-12T00:04:12;7.23;;;5.10;;
1693;SDS011;71975;47.068;15.408;2023-08-12T00:09:16;7.73;;;4.87;;
1693;SDS011;71975;47.068;15.408;2023-08-12T00:14:21;5.93;;;5.40;;
1693;SDS011;71975;47.068;15.408;2023-08-12T00:19:23;5.00;;;4.63;;
1693;SDS011;71975;47.068;15.408;2023-08-12T00:24:26;4.70;;;4.37;;
1693;SDS011;71975;47.068;15.408;2023-08-12T00:29:30;5.67;;;5.27;;
1693;SDS011;71975;47.068;15.408;2023-08-12T00:34:33;6.03;;;5.53;;
1693;SDS011;71975;47.068;15.408;2023-08-12T00:39:36;5.83;;;5.33;;
1693;SDS011;71975;47.068;15.408;2023-08-12T00:44:40;5.30;;;4.90;;
1693;SDS011;71975;47.068;15.408;2023-08-12T00:49:43;5.07;;;4.67;;
1693;SDS011;71975;47.068;15.408;2023-08-12T00:54:47;4.60;;;4.30;;
1693;SDS011;71975;47.068;15.408;2023-08-12T00:59:51;5.23;;;4.73;;
1693;SDS011;71975;47.068;15.408;2023-08-12T01:04:55;5.40;;;4.90;;
1693;SDS011;71975;47.068;15.408;2023-08-12T01:09:58;5.00;;;4.63;;
1693;SDS011;71975;47.068;15.408;2023-08-12T01:15:04;5.70;;;5.10;;
1693;SDS011;71975;47.068;15.408;2023-08-12T01:20:11;4.83;;;4.43;;
1693;SDS011;71975;47.068;15.408;2023-08-12T01:25:17;5.20;;;4.43;;
1693;SDS011;71975;47.068;15.408;2023-08-12T01:30:20;5.77;;;3.93;;
1693;SDS011;71975;47.068;15.408;2023-08-12T01:35:25;4.87;;;4.47;;
1693;SDS011;71975;47.068;15.408;2023-08-12T01:40:33;5.00;;;4.57;;
1693;SDS011;71975;47.068;15.408;2023-08-12T01:45:38;5.00;;;4.60;;
1693;SDS011;71975;47.068;15.408;2023-08-12T01:50:41;4.63;;;4.23;;
1693;SDS011;71975;47.068;15.408;2023-08-12T01:55:51;4.63;;;4.13;;
1693;SDS011;71975;47.068;15.408;2023-08-12T02:00:55;5.23;;;4.40;;
1693;SDS011;71975;47.068;15.408;2023-08-12T02:05:57;4.97;;;4.23;;
1693;SDS011;71975;47.068;15.408;2023-08-12T02:11:02;5.23;;;4.73;;
1693;SDS011;71975;47.068;15.408;2023-08-12T02:16:04;5.17;;;4.77;;
1693;SDS011;71975;47.068;15.408;2023-08-12T02:21:07;6.27;;;5.77;;
1693;SDS011;71975;47.068;15.408;2023-08-12T02:26:12;5.37;;;4.87;;
1693;SDS011;71975;47.068;15.408;2023-08-12T02:31:14;5.27;;;4.77;;
1693;SDS011;71975;47.068;15.408;2023-08-12T02:36:17;7.03;;;6.20;;
1693;SDS011;71975;47.068;15.408;2023-08-12T02:41:22;5.73;;;5.23;;
1693;SDS011;71975;47.068;15.408;2023-08-12T02:46:25;5.53;;;5.13;;
1693;SDS011;71975;47.068;15.408;2023-08-12T02:51:28;6.60;;;5.50;;
1693;SDS011;71975;47.068;15.408;2023-08-12T02:56:32;6.43;;;5.77;;
1693;SDS011;71975;47.068;15.408;2023-08-12T03:01:35;6.07;;;5.57;;
1693;SDS011;71975;47.068;15.408;2023-08-12T03:06:38;8.27;;;6.00;;
1693;SDS011;71975;47.068;15.408;2023-08-12T03:11:42;7.23;;;6.40;;
1693;SDS011;71975;47.068;15.408;2023-08-12T03:16:45;5.87;;;5.47;;
1693;SDS011;71975;47.068;15.408;2023-08-12T03:21:48;6.23;;;5.67;;
1693;SDS011;71975;47.068;15.408;2023-08-12T03:26:52;5.80;;;5.40;;
1693;SDS011;71975;47.068;15.408;2023-08-12T03:31:55;5.93;;;5.20;;
1693;SDS011;71975;47.068;15.408;2023-08-12T03:36:58;4.33;;;3.80;;
1693;SDS011;71975;47.068;15.408;2023-08-12T03:42:03;4.13;;;3.83;;
1693;SDS011;71975;47.068;15.408;2023-08-12T03:47:06;4.80;;;4.30;;
1693;SDS011;71975;47.068;15.408;2023-08-12T03:52:09;5.77;;;4.90;;
1693;SDS011;71975;47.068;15.408;2023-08-12T03:57:13;5.90;;;5.40;;
1693;SDS011;71975;47.068;15.408;2023-08-12T04:02:16;7.47;;;6.90;;
1693;SDS011;71975;47.068;15.408;2023-08-12T04:07:19;10.40;;;7.20;;
1693;SDS011;71975;47.068;15.408;2023-08-12T04:12:23;7.37;;;6.67;;
1693;SDS011;71975;47.068;15.408;2023-08-12T04:17:26;7.33;;;6.37;;
1693;SDS011;71975;47.068;15.408;2023-08-12T04:22:29;6.60;;;6.00;;
1693;SDS011;71975;47.068;15.408;2023-08-12T04:27:33;6.70;;;6.20;;
1693;SDS011;71975;47.068;15.408;2023-08-12T04:32:36;6.17;;;5.67;;
1693;SDS011;71975;47.068;15.408;2023-08-12T04:37:39;5.97;;;5.47;;
1693;SDS011;71975;47.068;15.408;2023-08-12T04:42:43;7.20;;;5.27;;
1693;SDS011;71975;47.068;15.408;2023-08-12T04:47:46;6.10;;;5.27;;
1693;SDS011;71975;47.068;15.408;2023-08-12T04:52:49;5.47;;;4.97;;
1693;SDS011;71975;47.068;15.408;2023-08-12T04:57:53;11.70;;;10.60;;
1693;SDS011;71975;47.068;15.408;2023-08-12T05:02:56;5.97;;;5.37;;
1693;SDS011;71975;47.068;15.408;2023-08-12T05:07:59;6.53;;;5.90;;
1693;SDS011;71975;47.068;15.408;2023-08-12T05:13:04;10.93;;;7.80;;
1693;SDS011;71975;47.068;15.408;2023-08-12T05:18:07;6.70;;;6.20;;
1693;SDS011;71975;47.068;15.408;2023-08-12T05:23:10;7.40;;;6.80;;
1693;SDS011;71975;47.068;15.408;2023-08-12T05:28:15;8.13;;;7.43;;
1693;SDS011;71975;47.068;15.408;2023-08-12T05:33:17;7.70;;;7.10;;
1693;SDS011;71975;47.068;15.408;2023-08-12T05:38:20;8.03;;;7.33;;
1693;SDS011;71975;47.068;15.408;2023-08-12T05:43:25;7.70;;;7.00;;
1693;SDS011;71975;47.068;15.408;2023-08-12T05:48:28;7.87;;;6.70;;
1693;SDS011;71975;47.068;15.408;2023-08-12T05:53:30;7.30;;;6.70;;
1693;SDS011;71975;47.068;15.408;2023-08-12T05:58:35;11.10;;;10.20;;
1693;SDS011;71975;47.068;15.408;2023-08-12T06:03:38;7.30;;;6.70;;
1693;SDS011;71975;47.068;15.408;2023-08-12T06:08:41;6.97;;;6.27;;
1693;SDS011;71975;47.068;15.408;2023-08-12T06:13:45;7.00;;;6.30;;
1693;SDS011;71975;47.068;15.408;2023-08-12T06:18:48;9.70;;;8.90;;
1693;SDS011;71975;47.068;15.408;2023-08-12T06:23:51;6.53;;;5.97;;
1693;SDS011;71975;47.068;15.408;2023-08-12T06:28:56;5.97;;;5.47;;
1693;SDS011;71975;47.068;15.408;2023-08-12T06:33:58;5.97;;;5.43;;
1693;SDS011;71975;47.068;15.408;2023-08-12T06:39:02;6.00;;;5.50;;
1693;SDS011;71975;47.068;15.408;2023-08-12T06:44:07;6.10;;;5.60;;
1693;SDS011;71975;47.068;15.408;2023-08-12T06:49:09;24.83;;;21.30;;
1693;SDS011;71975;47.068;15.408;2023-08-12T06:54:12;7.90;;;7.20;;
1693;SDS011;71975;47.068;15.408;2023-08-12T06:59:17;8.53;;;6.40;;
1693;SDS011;71975;47.068;15.408;2023-08-12T07:04:20;5.97;;;5.37;;
1693;SDS011;71975;47.068;15.408;2023-08-12T07:09:23;5.77;;;4.67;;
1693;SDS011;71975;47.068;15.408;2023-08-12T07:14:27;5.57;;;4.07;;
1693;SDS011;71975;47.068;15.408;2023-08-12T07:19:31;8.10;;;4.53;;
1693;SDS011;71975;47.068;15.408;2023-08-12T07:24:34;3.97;;;3.43;;
1693;SDS011;71975;47.068;15.408;2023-08-12T07:29:38;4.10;;;3.70;;
1693;SDS011;71975;47.068;15.408;2023-08-12T07:34:41;7.37;;;4.90;;
1693;SDS011;71975;47.068;15.408;2023-08-12T07:39:44;4.57;;;4.17;;
1693;SDS011;71975;47.068;15.408;2023-08-12T07:44:48;4.67;;;4.20;;
1693;SDS011;71975;47.068;15.408;2023-08-12T07:49:51;4.63;;;3.80;;
1693;SDS011;71975;47.068;15.408;2023-08-12T07:54:54;4.40;;;4.10;;
1693;SDS011;71975;47.068;15.408;2023-08-12T07:59:58;3.97;;;3.60;;
1693;SDS011;71975;47.068;15.408;2023-08-12T08:05:01;4.77;;;4.07;;
1693;SDS011;71975;47.068;15.408;2023-08-12T08:10:04;5.90;;;4.63;;
1693;SDS011;71975;47.068;15.408;2023-08-12T08:15:09;5.07;;;4.63;;
1693;SDS011;71975;47.068;15.408;2023-08-12T08:20:12;4.97;;;4.53;;
1693;SDS011;71975;47.068;15.408;2023-08-12T08:25:15;4.83;;;4.43;;
1693;SDS011;71975;47.068;15.408;2023-08-12T08:30:19;6.03;;;5.50;;
1693;SDS011;71975;47.068;15.408;2023-08-12T08:35:24;4.53;;;4.23;;
1693;SDS011;71975;47.068;15.408;2023-08-12T08:40:27;4.87;;;4.47;;
1693;SDS011;71975;47.068;15.408;2023-08-12T08:45:32;5.80;;;5.30;;
1693;SDS011;71975;47.068;15.408;2023-08-12T08:50:35;4.40;;;4.00;;
1693;SDS011;71975;47.068;15.408;2023-08-12T08:55:39;4.67;;;4.27;;
1693;SDS011;71975;47.068;15.408;2023-08-12T09:00:44;4.60;;;4.30;;
1693;SDS011;71975;47.068;15.408;2023-08-12T09:05:47;4.40;;;4.00;;
1693;SDS011;71975;47.068;15.408;2023-08-12T09:10:50;4.67;;;4.23;;
1693;SDS011;71975;47.068;15.408;2023-08-12T09:15:54;3.90;;;3.50;;
1693;SDS011;71975;47.068;15.408;2023-08-12T09:20:57;4.00;;;3.67;;
1693;SDS011;71975;47.068;15.408;2023-08-12T09:26:00;4.83;;;4.13;;
1693;SDS011;71975;47.068;15.408;2023-08-12T09:31:05;5.10;;;4.10;;
1693;SDS011;71975;47.068;15.408;2023-08-12T09:36:08;4.57;;;4.27;;
1693;SDS011;71975;47.068;15.408;2023-08-12T09:41:11;6.93;;;3.70;;
1693;SDS011;71975;47.068;15.408;2023-08-12T09:46:15;4.50;;;4.20;;
1693;SDS011;71975;47.068;15.408;2023-08-12T09:51:18;4.73;;;4.37;;
1693;SDS011;71975;47.068;15.408;2023-08-12T09:56:22;5.07;;;4.67;;
1693;SDS011;71975;47.068;15.408;2023-08-12T10:01:27;4.57;;;4.27;;
1693;SDS011;71975;47.068;15.408;2023-08-12T10:06:31;6.50;;;6.03;;
1693;SDS011;71975;47.068;15.408;2023-08-12T10:11:34;5.40;;;4.97;;
1693;SDS011;71975;47.068;15.408;2023-08-12T10:16:38;4.90;;;4.50;;
1693;SDS011;71975;47.068;15.408;2023-08-12T10:21:44;4.70;;;4.33;;
1693;SDS011;71975;47.068;15.408;2023-08-12T10:26:48;8.93;;;4.67;;
1693;SDS011;71975;47.068;15.408;2023-08-12T10:31:57;4.83;;;4.53;;
1693;SDS011;71975;47.068;15.408;2023-08-12T10:37:00;5.20;;;4.80;;
1693;SDS011;71975;47.068;15.408;2023-08-12T10:42:04;5.00;;;4.57;;
1693;SDS011;71975;47.068;15.408;2023-08-12T10:47:10;4.40;;;3.60;;
1693;SDS011;71975;47.068;15.408;2023-08-12T10:52:25;4.20;;;3.90;;
1693;SDS011;71975;47.068;15.408;2023-08-12T10:57:36;4.50;;;4.20;;
1693;SDS011;71975;47.068;15.408;2023-08-12T11:02:41;3.77;;;3.53;;
1693;SDS011;71975;47.068;15.408;2023-08-12T11:07:48;4.23;;;3.93;;
1693;SDS011;71975;47.068;15.408;2023-08-12T11:12:53;4.13;;;3.80;;
1693;SDS011;71975;47.068;15.408;2023-08-12T11:17:59;3.97;;;3.67;;
1693;SDS011;71975;47.068;15.408;2023-08-12T11:23:02;4.63;;;4.23;;
1693;SDS011;71975;47.068;15.408;2023-08-12T11:28:07;3.60;;;3.33;;
1693;SDS011;71975;47.068;15.408;2023-08-12T11:33:11;9.77;;;4.20;;
1693;SDS011;71975;47.068;15.408;2023-08-12T11:38:15;4.30;;;4.00;;
1693;SDS011;71975;47.068;15.408;2023-08-12T11:43:20;5.50;;;4.30;;
1693;SDS011;71975;47.068;15.408;2023-08-12T11:48:25;3.50;;;2.93;;
1693;SDS011;71975;47.068;15.408;2023-08-12T11:53:29;3.77;;;3.57;;
1693;SDS011;71975;47.068;15.408;2023-08-12T11:58:35;4.03;;;3.73;;
1693;SDS011;71975;47.068;15.408;2023-08-12T12:03:54;3.90;;;3.60;;
1693;SDS011;71975;47.068;15.408;2023-08-12T12:08:59;3.50;;;3.30;;
1693;SDS011;71975;47.068;15.408;2023-08-12T12:14:06;4.57;;;4.20;;
1693;SDS011;71975;47.068;15.408;2023-08-12T12:19:15;4.17;;;3.87;;
1693;SDS011;71975;47.068;15.408;2023-08-12T12:24:19;4.20;;;3.93;;
1693;SDS011;71975;47.068;15.408;2023-08-12T12:29:23;4.50;;;3.53;;
1693;SDS011;71975;47.068;15.408;2023-08-12T12:34:27;4.70;;;4.30;;
1693;SDS011;71975;47.068;15.408;2023-08-12T12:39:30;4.50;;;4.00;;
1693;SDS011;71975;47.068;15.408;2023-08-12T12:44:33;5.93;;;3.77;;
1693;SDS011;71975;47.068;15.408;2023-08-12T12:49:37;4.53;;;4.13;;
1693;SDS011;71975;47.068;15.408;2023-08-12T12:54:40;3.90;;;3.60;;
1693;SDS011;71975;47.068;15.408;2023-08-12T12:59:43;4.00;;;3.70;;
1693;SDS011;71975;47.068;15.408;2023-08-12T13:04:48;4.10;;;3.70;;
1693;SDS011;71975;47.068;15.408;2023-08-12T13:09:51;3.80;;;3.50;;
1693;SDS011;71975;47.068;15.408;2023-08-12T13:14:54;3.57;;;3.37;;
1693;SDS011;71975;47.068;15.408;2023-08-12T13:19:58;4.10;;;3.70;;
1693;SDS011;71975;47.068;15.408;2023-08-12T13:25:01;3.90;;;3.50;;
1693;SDS011;71975;47.068;15.408;2023-08-12T13:30:05;5.33;;;4.93;;
1693;SDS011;71975;47.068;15.408;2023-08-12T13:35:10;3.40;;;3.20;;
1693;SDS011;71975;47.068;15.408;2023-08-12T13:40:13;3.63;;;3.43;;
1693;SDS011;71975;47.068;15.408;2023-08-12T13:45:16;3.67;;;3.07;;
1693;SDS011;71975;47.068;15.408;2023-08-12T13:50:21;5.83;;;3.73;;
1693;SDS011;71975;47.068;15.408;2023-08-12T13:55:24;3.60;;;3.30;;
1693;SDS011;71975;47.068;15.408;2023-08-12T14:00:27;3.90;;;3.47;;
1693;SDS011;71975;47.068;15.408;2023-08-12T14:05:31;4.00;;;3.70;;
1693;SDS011;71975;47.068;15.408;2023-08-12T14:10:34;5.10;;;3.40;;
1693;SDS011;71975;47.068;15.408;2023-08-12T14:15:37;4.03;;;3.63;;
1693;SDS011;71975;47.068;15.408;2023-08-12T14:20:41;4.23;;;3.50;;
1693;SDS011;71975;47.068;15.408;2023-08-12T14:25:44;4.10;;;3.80;;
1693;SDS011;71975;47.068;15.408;2023-08-12T14:30:47;3.30;;;3.00;;
1693;SDS011;71975;47.068;15.408;2023-08-12T14:35:51;3.17;;;2.90;;
1693;SDS011;71975;47.068;15.408;2023-08-12T14:40:55;3.10;;;2.90;;
1693;SDS011;71975;47.068;15.408;2023-08-12T14:45:58;3.73;;;3.43;;
1693;SDS011;71975;47.068;15.408;2023-08-12T14:51:03;3.53;;;3.30;;
1693;SDS011;71975;47.068;15.408;2023-08-12T14:56:06;5.20;;;3.30;;
1693;SDS011;71975;47.068;15.408;2023-08-12T15:01:08;4.07;;;3.77;;
1693;SDS011;71975;47.068;15.408;2023-08-12T15:06:13;5.13;;;3.27;;
1693;SDS011;71975;47.068;15.408;2023-08-12T15:11:16;3.70;;;3.37;;
1693;SDS011;71975;47.068;15.408;2023-08-12T15:16:19;4.00;;;3.70;;
1693;SDS011;71975;47.068;15.408;2023-08-12T15:21:23;6.30;;;3.90;;
1693;SDS011;71975;47.068;15.408;2023-08-12T15:26:26;4.60;;;3.70;;
1693;SDS011;71975;47.068;15.408;2023-08-12T15:31:33;3.73;;;3.37;;
1693;SDS011;71975;47.068;15.408;2023-08-12T15:36:37;3.87;;;3.57;;
1693;SDS011;71975;47.068;15.408;2023-08-12T15:41:42;5.13;;;3.67;;
1693;SDS011;71975;47.068;15.408;2023-08-12T15:46:46;3.47;;;3.17;;
1693;SDS011;71975;47.068;15.408;2023-08-12T15:51:50;3.90;;;3.60;;
1693;SDS011;71975;47.068;15.408;2023-08-12T15:56:53;4.80;;;4.40;;
1693;SDS011;71975;47.068;15.408;2023-08-12T16:01:57;4.43;;;4.10;;
1693;SDS011;71975;47.068;15.408;2023-08-12T16:07:01;3.90;;;3.30;;
1693;SDS011;71975;47.068;15.408;2023-08-12T16:12:05;3.97;;;3.77;;
1693;SDS011;71975;47.068;15.408;2023-08-12T16:17:08;3.50;;;3.20;;
1693;SDS011;71975;47.068;15.408;2023-08-12T16:22:12;3.60;;;3.40;;
1693;SDS011;71975;47.068;15.408;2023-08-12T16:27:15;3.57;;;3.27;;
1693;SDS011;71975;47.068;15.408;2023-08-12T16:32:18;3.77;;;3.47;;
1693;SDS011;71975;47.068;15.408;2023-08-12T16:37:22;3.83;;;3.53;;
1693;SDS011;71975;47.068;15.408;2023-08-12T16:42:26;3.70;;;3.30;;
1693;SDS011;71975;47.068;15.408;2023-08-12T16:47:28;3.87;;;3.57;;
1693;SDS011;71975;47.068;15.408;2023-08-12T16:52:34;4.60;;;4.07;;
1693;SDS011;71975;47.068;15.408;2023-08-12T16:57:37;4.30;;;4.00;;
1693;SDS011;71975;47.068;15.408;2023-08-12T17:02:40;4.20;;;3.90;;
1693;SDS011;71975;47.068;15.408;2023-08-12T17:07:44;6.10;;;3.60;;
1693;SDS011;71975;47.068;15.408;2023-08-12T17:12:47;4.00;;;3.80;;
1693;SDS011;71975;47.068;15.408;2023-08-12T17:17:50;5.23;;;4.73;;
1693;SDS011;71975;47.068;15.408;2023-08-12T17:22:55;4.27;;;3.87;;
1693;SDS011;71975;47.068;15.408;2023-08-12T17:27:57;3.90;;;3.60;;
1693;SDS011;71975;47.068;15.408;2023-08-12T17:33:00;4.13;;;3.83;;
1693;SDS011;71975;47.068;15.408;2023-08-12T17:38:05;4.57;;;4.17;;
1693;SDS011;71975;47.068;15.408;2023-08-12T17:43:08;5.67;;;3.83;;
1693;SDS011;71975;47.068;15.408;2023-08-12T17:48:11;4.10;;;3.80;;
1693;SDS011;71975;47.068;15.408;2023-08-12T17:53:15;5.10;;;4.70;;
1693;SDS011;71975;47.068;15.408;2023-08-12T17:58:18;5.03;;;4.63;;
1693;SDS011;71975;47.068;15.408;2023-08-12T18:03:21;5.47;;;5.03;;
1693;SDS011;71975;47.068;15.408;2023-08-12T18:08:26;4.97;;;4.57;;
1693;SDS011;71975;47.068;15.408;2023-08-12T18:13:29;5.00;;;4.60;;
1693;SDS011;71975;47.068;15.408;2023-08-12T18:18:32;5.57;;;5.07;;
1693;SDS011;71975;47.068;15.408;2023-08-12T18:23:36;5.83;;;5.33;;
1693;SDS011;71975;47.068;15.408;2023-08-12T18:28:39;4.43;;;4.03;;
1693;SDS011;71975;47.068;15.408;2023-08-12T18:33:42;5.23;;;4.83;;
1693;SDS011;71975;47.068;15.408;2023-08-12T18:38:47;5.63;;;5.10;;
1693;SDS011;71975;47.068;15.408;2023-08-12T18:43:50;4.90;;;4.40;;
1693;SDS011;71975;47.068;15.408;2023-08-12T18:48:53;4.53;;;4.13;;
1693;SDS011;71975;47.068;15.408;2023-08-12T18:53:59;4.53;;;4.17;;
1693;SDS011;71975;47.068;15.408;2023-08-12T18:59:03;7.03;;;6.30;;
1693;SDS011;71975;47.068;15.408;2023-08-12T19:04:07;5.13;;;4.73;;
1693;SDS011;71975;47.068;15.408;2023-08-12T19:09:11;6.20;;;5.70;;
1693;SDS011;71975;47.068;15.408;2023-08-12T19:14:15;8.97;;;8.07;;
1693;SDS011;71975;47.068;15.408;2023-08-12T19:19:18;13.07;;;10.70;;
1693;SDS011;71975;47.068;15.408;2023-08-12T19:24:22;22.00;;;14.50;;
1693;SDS011;71975;47.068;15.408;2023-08-12T19:29:25;35.13;;;20.70;;
1693;SDS011;71975;47.068;15.408;2023-08-12T19:34:30;15.00;;;10.50;;
1693;SDS011;71975;47.068;15.408;2023-08-12T19:39:37;13.30;;;11.27;;
1693;SDS011;71975;47.068;15.408;2023-08-12T19:44:42;18.27;;;11.87;;
1693;SDS011;71975;47.068;15.408;2023-08-12T19:49:48;7.73;;;6.90;;
1693;SDS011;71975;47.068;15.408;2023-08-12T19:54:55;8.83;;;7.30;;
1693;SDS011;71975;47.068;15.408;2023-08-12T20:00:00;10.23;;;9.43;;
1693;SDS011;71975;47.068;15.408;2023-08-12T20:05:12;9.43;;;7.90;;
1693;SDS011;71975;47.068;15.408;2023-08-12T20:10:20;7.97;;;7.20;;
1693;SDS011;71975;47.068;15.408;2023-08-12T20:15:25;9.50;;;6.80;;
1693;SDS011;71975;47.068;15.408;2023-08-12T20:20:30;9.03;;;6.10;;
1693;SDS011;71975;47.068;15.408;2023-08-12T20:25:37;7.30;;;6.60;;
1693;SDS011;71975;47.068;15.408;2023-08-12T20:30:42;6.70;;;6.10;;
1693;SDS011;71975;47.068;15.408;2023-08-12T20:35:47;6.57;;;5.37;;
1693;SDS011;71975;47.068;15.408;2023-08-12T20:40:54;6.90;;;6.30;;
1693;SDS011;71975;47.068;15.408;2023-08-12T20:45:59;9.87;;;9.03;;
1693;SDS011;71975;47.068;15.408;2023-08-12T20:51:05;6.63;;;6.13;;
1693;SDS011;71975;47.068;15.408;2023-08-12T20:56:12;5.97;;;5.57;;
1693;SDS011;71975;47.068;15.408;2023-08-12T21:01:16;7.27;;;6.57;;
1693;SDS011;71975;47.068;15.408;2023-08-12T21:06:19;6.37;;;5.87;;
1693;SDS011;71975;47.068;15.408;2023-08-12T21:11:24;6.90;;;6.30;;
1693;SDS011;71975;47.068;15.408;2023-08-12T21:16:27;8.23;;;7.40;;
1693;SDS011;71975;47.068;15.408;2023-08-12T21:21:30;7.47;;;6.80;;
1693;SDS011;71975;47.068;15.408;2023-08-12T21:26:34;7.10;;;6.50;;
1693;SDS011;71975;47.068;15.408;2023-08-12T21:31:37;8.33;;;7.50;;
1693;SDS011;71975;47.068;15.408;2023-08-12T21:36:40;7.43;;;6.83;;
1693;SDS011;71975;47.068;15.408;2023-08-12T21:41:44;7.53;;;6.83;;
1693;SDS011;71975;47.068;15.408;2023-08-12T21:46:47;8.30;;;6.87;;
1693;SDS011;71975;47.068;15.408;2023-08-12T21:51:50;7.10;;;6.50;;
1693;SDS011;71975;47.068;15.408;2023-08-12T21:56:54;8.03;;;7.30;;
1693;SDS011;71975;47.068;15.408;2023-08-12T22:01:59;8.40;;;7.70;;
1693;SDS011;71975;47.068;15.408;2023-08-12T22:07:03;7.60;;;7.00;;
1693;SDS011;71975;47.068;15.408;2023-08-12T22:12:08;7.23;;;6.63;;
1693;SDS011;71975;47.068;15.408;2023-08-12T22:17:11;9.47;;;7.03;;
1693;SDS011;71975;47.068;15.408;2023-08-12T22:22:14;7.90;;;7.20;;
1693;SDS011;71975;47.068;15.408;2023-08-12T22:27:22;7.70;;;7.00;;
1693;SDS011;71975;47.068;15.408;2023-08-12T22:32:24;8.30;;;7.60;;
1693;SDS011;71975;47.068;15.408;2023-08-12T22:37:27;7.87;;;6.80;;
1693;SDS011;71975;47.068;15.408;2023-08-12T22:42:31;7.20;;;6.60;;
1693;SDS011;71975;47.068;15.408;2023-08-12T22:47:34;7.40;;;6.83;;
1693;SDS011;71975;47.068;15.408;2023-08-12T22:52:38;7.77;;;7.13;;
1693;SDS011;71975;47.068;15.408;2023-08-12T22:57:42;8.27;;;6.60;;
1693;SDS011;71975;47.068;15.408;2023-08-12T23:02:45;7.00;;;6.50;;
1693;SDS011;71975;47.068;15.408;2023-08-12T23:07:48;7.13;;;6.43;;
1693;SDS011;71975;47.068;15.408;2023-08-12T23:12:53;7.93;;;7.20;;
1693;SDS011;71975;47.068;15.408;2023-08-12T23:17:56;8.30;;;7.70;;
1693;SDS011;71975;47.068;15.408;2023-08-12T23:22:59;8.37;;;7.67;;
1693;SDS011;71975;47.068;15.408;2023-08-12T23:28:04;8.00;;;7.30;;
1693;SDS011;71975;47.068;15.408;2023-08-12T23:33:07;7.60;;;7.10;;
1693;SDS011;71975;47.068;15.408;2023-08-12T23:38:10;7.60;;;7.00;;
1693;SDS011;71975;47.068;15.408;2023-08-12T23:43:14;8.00;;;7.20;;
1693;SDS011;71975;47.068;15.408;2023-08-12T23:48:18;6.90;;;6.40;;
1693;SDS011;71975;47.068;15.408;2023-08-12T23:53:21;8.60;;;7.50;;
1693;SDS011;71975;47.068;15.408;2023-08-12T23:58:25;7.83;;;7.17;;
